Time;durP1;ratioP1;P1;durP2;ratioP2;P2;SDS_P1;SDS_P2;PMS_P1;PMS_P2;Temp;Humidity;BMP_temperature;BMP_pressure;BME280_temperature;BME280_humidity;BME280_pressure;Samples;Min_cycle;Max_cycle;Signal;HPM_P1;HPM_P2
2023/01/18 00:00:51;;;;;;;3.33;2.20;;;;;;;17.66;36.26;99031.47;16213796;19;130018;-63
2023/01/18 00:06:13;;;;;;;4.53;1.70;;;;;;;17.62;36.59;99024.84;16213512;19;129455;-62
2023/01/18 00:11:35;;;;;;;4.03;2.03;;;;;;;17.59;36.22;99022.69;16211070;19;129918;-63
2023/01/18 00:16:57;;;;;;;2.38;1.73;;;;;;;17.56;36.57;99031.53;16213702;19;129410;-63
2023/01/18 00:22:18;;;;;;;3.13;1.73;;;;;;;17.53;36.64;99028.19;16211466;19;128609;-62
2023/01/18 00:27:45;;;;;;;3.65;2.00;;;;;;;17.51;36.31;99033.19;16213340;19;129456;-62
2023/01/18 00:33:08;;;;;;;3.95;2.30;;;;;;;17.47;36.65;99034.88;16212149;19;128696;-63
2023/01/18 00:38:30;;;;;;;3.03;2.05;;;;;;;17.45;36.67;99036.25;16209674;19;129551;-63
2023/01/18 00:43:52;;;;;;;3.50;1.70;;;;;;;17.42;36.53;99043.19;16211101;19;130208;-63
2023/01/18 00:49:14;;;;;;;3.38;2.08;;;;;;;17.40;36.49;99050.94;16211620;19;128430;-62
2023/01/18 00:54:36;;;;;;;4.70;1.83;;;;;;;17.36;36.76;99052.59;16209368;19;128198;-63
2023/01/18 00:59:58;;;;;;;3.88;1.60;;;;;;;17.34;36.40;99057.59;16210984;19;129045;-63
2023/01/18 01:11:10;;;;;;;3.35;1.70;;;;;;;17.30;36.73;99057.31;16211379;19;129707;-62
2023/01/18 01:27:53;;;;;;;2.88;1.70;;;;;;;17.20;36.57;99085.84;16209793;19;128262;-63
2023/01/18 01:33:17;;;;;;;3.42;1.80;;;;;;;17.18;36.20;99085.28;16209497;19;128811;-62
2023/01/18 01:38:41;;;;;;;2.45;1.77;;;;;;;17.16;36.88;99090.28;16210886;19;129415;-62
2023/01/18 01:44:18;;;;;;;5.30;2.30;;;;;;;17.15;36.73;99094.13;16210239;19;128291;-63
2023/01/18 01:49:48;;;;;;;3.58;1.88;;;;;;;17.13;36.80;99101.06;16213490;19;129284;-61
2023/01/18 01:55:22;;;;;;;4.30;1.80;;;;;;;17.12;36.53;99097.47;16210530;19;131031;-62
2023/01/18 02:00:44;;;;;;;3.22;1.95;;;;;;;17.08;36.85;99099.16;16210499;19;129272;-62
2023/01/18 02:06:30;;;;;;;2.25;1.90;;;;;;;17.08;36.70;99108.25;16211347;19;129817;-63
2023/01/18 02:11:54;;;;;;;2.50;1.70;;;;;;;17.04;36.72;99104.41;16209568;19;129470;-62
2023/01/18 02:17:43;;;;;;;3.83;2.13;;;;;;;17.03;36.38;99115.72;16206623;19;128101;-62
2023/01/18 02:23:24;;;;;;;3.17;2.10;;;;;;;17.01;36.71;99109.66;16205830;19;129058;-62
2023/01/18 02:29:04;;;;;;;2.42;1.90;;;;;;;16.97;36.41;99114.09;16208987;19;128855;-62
2023/01/18 02:34:42;;;;;;;2.90;2.00;;;;;;;16.96;36.36;99123.50;16207202;19;134403;-62
2023/01/18 02:40:26;;;;;;;2.15;1.77;;;;;;;16.92;36.70;99121.28;16208732;19;129738;-62
2023/01/18 02:51:29;;;;;;;1.80;1.55;;;;;;;16.88;36.71;99128.44;16206755;19;128984;-62
2023/01/18 02:56:54;;;;;;;2.00;1.60;;;;;;;16.87;36.37;99135.06;16206093;19;130000;-62
2023/01/18 03:02:19;;;;;;;2.57;1.70;;;;;;;16.85;36.54;99139.22;16201859;19;128227;-63
2023/01/18 03:07:49;;;;;;;3.15;2.00;;;;;;;16.84;36.21;99143.94;16202841;19;132118;-63
2023/01/18 03:13:24;;;;;;;2.20;1.55;;;;;;;16.82;36.38;99145.31;16205971;19;128379;-62
2023/01/18 03:24:51;;;;;;;2.13;1.80;;;;;;;16.77;36.64;99157.19;16207308;19;130006;-63
2023/01/18 03:35:55;;;;;;;2.88;2.08;;;;;;;16.74;36.44;99154.97;16218690;19;128349;-62
2023/01/18 03:41:19;;;;;;;2.72;1.65;;;;;;;16.74;36.89;99158.56;16219574;19;128958;-61
2023/01/18 03:46:42;;;;;;;2.25;1.70;;;;;;;16.71;36.68;99152.78;16201420;19;129221;-63
2023/01/18 03:52:24;;;;;;;2.45;1.70;;;;;;;16.72;36.21;99159.97;16135156;19;129522;-62
2023/01/18 03:57:46;;;;;;;2.17;1.60;;;;;;;16.69;36.87;99166.03;16142429;19;133500;-63
2023/01/18 04:03:08;;;;;;;2.60;1.60;;;;;;;16.67;36.46;99174.59;16135282;19;129956;-63
2023/01/18 04:08:30;;;;;;;1.50;1.40;;;;;;;16.66;36.41;99186.75;16133973;19;130540;-62
2023/01/18 04:13:51;;;;;;;1.52;1.40;;;;;;;16.65;36.53;99189.75;16133548;19;129349;-62
2023/01/18 04:19:15;;;;;;;3.83;1.90;;;;;;;16.63;36.62;99193.59;16135617;19;129908;-63
2023/01/18 04:24:37;;;;;;;2.40;1.60;;;;;;;16.62;36.64;99194.69;16131078;19;128914;-62
2023/01/18 04:29:59;;;;;;;1.77;1.50;;;;;;;16.60;36.80;99210.75;16134010;19;129594;-62
2023/01/18 04:35:21;;;;;;;2.95;1.50;;;;;;;16.58;36.54;99204.66;16131621;19;130705;-62
2023/01/18 04:40:43;;;;;;;2.25;1.60;;;;;;;16.57;36.60;99204.91;16133534;19;130685;-63
2023/01/18 04:46:04;;;;;;;2.28;1.70;;;;;;;16.56;36.35;99214.28;16132518;19;129674;-64
2023/01/18 04:51:26;;;;;;;2.35;1.70;;;;;;;16.54;36.45;99208.25;16129015;19;131029;-63
2023/01/18 04:56:48;;;;;;;1.80;1.40;;;;;;;16.54;36.65;99208.25;16131480;19;130168;-63
2023/01/18 05:02:11;;;;;;;1.98;1.50;;;;;;;16.51;36.75;99223.41;16127913;19;130463;-65
2023/01/18 05:07:32;;;;;;;2.90;1.85;;;;;;;16.50;36.82;99232.78;16127474;19;130276;-62
2023/01/18 05:12:54;;;;;;;2.80;1.60;;;;;;;16.49;36.47;99231.16;16125978;19;129680;-63
2023/01/18 05:18:17;;;;;;;2.13;1.42;;;;;;;16.48;36.80;99248.81;16127629;19;130329;-61
2023/01/18 05:23:39;;;;;;;1.85;1.15;;;;;;;16.47;36.79;99244.41;16128098;19;129429;-63
2023/01/18 05:29:01;;;;;;;2.05;1.58;;;;;;;16.45;36.57;99252.13;16126501;19;129498;-62
2023/01/18 05:34:22;;;;;;;1.60;1.40;;;;;;;16.44;36.82;99258.72;16126550;19;130594;-62
2023/01/18 05:39:44;;;;;;;2.17;1.67;;;;;;;16.43;36.46;99259.84;16129231;19;129893;-62
2023/01/18 05:45:06;;;;;;;2.05;1.50;;;;;;;16.42;36.40;99258.16;16128203;19;130497;-62
2023/01/18 05:50:28;;;;;;;2.42;1.70;;;;;;;16.39;36.70;99259.56;16118783;19;129543;-62
2023/01/18 05:55:56;;;;;;;2.13;1.50;;;;;;;16.39;36.77;99275.25;16128013;19;129022;-66
2023/01/18 06:01:18;;;;;;;2.00;1.40;;;;;;;16.37;36.72;99278.31;16125936;19;131351;-62
2023/01/18 06:06:40;;;;;;;2.95;1.20;;;;;;;16.38;36.81;99274.44;16126232;19;131153;-63
2023/01/18 06:12:02;;;;;;;1.92;1.27;;;;;;;16.66;36.13;99285.28;16166179;19;129274;-62
2023/01/18 06:17:24;;;;;;;1.80;1.27;;;;;;;17.21;36.09;99300.28;16191552;19;129161;-66
2023/01/18 06:22:46;;;;;;;5.72;1.50;;;;;;;17.71;35.55;99305.25;16122465;19;129749;-63
2023/01/18 06:28:07;;;;;;;8.30;2.50;;;;;;;18.15;34.90;99321.16;16173430;19;130084;-64
2023/01/18 06:33:29;;;;;;;9.20;2.70;;;;;;;18.63;34.14;99314.31;16198469;19;128385;-62
2023/01/18 06:38:51;;;;;;;8.77;3.00;;;;;;;19.03;33.52;99331.81;16108659;19;130143;-63
2023/01/18 06:44:13;;;;;;;4.45;2.50;;;;;;;19.33;32.85;99332.72;16123255;19;129569;-62
2023/01/18 06:49:35;;;;;;;8.85;2.55;;;;;;;19.51;32.80;99344.22;16180853;19;130422;-63
2023/01/18 06:54:57;;;;;;;4.65;2.40;;;;;;;19.50;33.03;99353.66;16190509;19;128573;-62
2023/01/18 07:00:19;;;;;;;7.15;2.22;;;;;;;19.40;33.13;99346.25;16192872;19;129049;-63
2023/01/18 07:05:41;;;;;;;7.93;2.33;;;;;;;19.22;33.07;99356.94;16211506;19;129046;-63
2023/01/18 07:11:05;;;;;;;4.43;2.33;;;;;;;19.06;33.44;99364.50;16151409;19;130798;-63
2023/01/18 07:16:28;;;;;;;6.25;2.40;;;;;;;18.87;33.57;99372.66;16196754;19;129576;-63
2023/01/18 07:21:52;;;;;;;3.08;2.00;;;;;;;18.69;33.87;99385.22;16214792;19;128520;-64
2023/01/18 07:27:14;;;;;;;4.85;2.15;;;;;;;18.53;33.59;99403.00;16213978;19;128428;-63
2023/01/18 07:32:35;;;;;;;5.57;1.90;;;;;;;18.37;34.29;99399.44;16214844;19;129192;-63
2023/01/18 07:37:58;;;;;;;4.47;1.70;;;;;;;18.36;34.27;99401.34;16217364;19;128681;-63
2023/01/18 07:43:19;;;;;;;3.40;1.63;;;;;;;18.49;33.84;99407.44;16218018;19;128433;-62
2023/01/18 07:48:42;;;;;;;8.18;1.90;;;;;;;18.80;33.56;99415.63;16216326;19;129540;-63
2023/01/18 07:54:03;;;;;;;3.28;1.90;;;;;;;19.21;33.11;99413.50;16215599;19;129302;-63
2023/01/18 07:59:26;;;;;;;3.75;1.80;;;;;;;19.66;32.93;99418.16;16216051;19;129747;-63
2023/01/18 08:04:48;;;;;;;1.88;1.45;;;;;;;20.02;32.46;99425.38;16217678;19;128371;-63
2023/01/18 08:10:10;;;;;;;2.13;1.42;;;;;;;20.26;32.29;99430.94;16215772;19;129219;-64
2023/01/18 08:15:32;;;;;;;3.25;1.33;;;;;;;20.48;32.03;99432.41;16214015;19;128262;-64
2023/01/18 08:20:54;;;;;;;3.42;1.40;;;;;;;20.65;31.88;99440.25;16215981;19;129115;-64
2023/01/18 08:26:16;;;;;;;3.33;1.67;;;;;;;20.59;31.85;99448.63;16212196;19;129972;-63
2023/01/18 08:31:38;;;;;;;2.25;1.38;;;;;;;20.47;32.19;99459.34;16214547;19;128900;-64
2023/01/18 08:36:59;;;;;;;2.30;1.55;;;;;;;20.26;32.37;99465.13;16214050;19;128849;-64
2023/01/18 08:42:21;;;;;;;4.43;1.77;;;;;;;20.06;32.44;99471.69;16211272;19;129706;-64
2023/01/18 08:47:43;;;;;;;3.10;1.38;;;;;;;19.84;32.45;99481.28;16213290;19;129722;-64
2023/01/18 08:53:05;;;;;;;2.65;1.40;;;;;;;19.62;32.75;99501.13;16207636;19;129540;-64
2023/01/18 08:58:30;;;;;;;2.95;1.63;;;;;;;19.41;32.88;99497.66;16209321;19;128644;-63
2023/01/18 09:03:54;;;;;;;2.42;1.58;;;;;;;19.24;33.34;99500.81;16212314;19;129071;-63
2023/01/18 09:09:15;;;;;;;4.63;1.70;;;;;;;19.08;33.54;99506.38;16212512;19;128803;-64
2023/01/18 09:14:37;;;;;;;5.25;1.30;;;;;;;18.97;33.72;99504.78;16208942;19;129447;-63
2023/01/18 09:19:59;;;;;;;2.95;1.42;;;;;;;18.84;33.60;99522.00;16201007;19;129438;-63
2023/01/18 09:25:20;;;;;;;6.82;2.08;;;;;;;18.73;33.61;99527.56;16206915;19;129279;-63
2023/01/18 09:30:42;;;;;;;4.75;1.27;;;;;;;18.64;33.68;99525.69;16210017;19;128450;-63
2023/01/18 09:36:08;;;;;;;3.83;1.50;;;;;;;18.53;33.80;99535.94;16212095;19;129142;-63
2023/01/18 09:41:33;;;;;;;11.65;2.08;;;;;;;18.43;33.63;99539.53;16207148;19;128495;-64
2023/01/18 09:47:05;;;;;;;8.73;2.30;;;;;;;18.36;33.46;99542.56;16208257;19;129420;-65
2023/01/18 09:52:59;;;;;;;12.18;2.88;;;;;;;18.27;33.65;99556.16;16206669;19;129711;-59
2023/01/18 09:58:53;;;;;;;13.27;3.17;;;;;;;18.23;33.13;99552.28;16203377;19;128163;-64
2023/01/18 10:04:18;;;;;;;8.75;2.58;;;;;;;18.31;32.84;99562.78;16208027;19;129090;-64
2023/01/18 10:09:43;;;;;;;12.57;2.95;;;;;;;18.50;32.87;99564.19;16208407;19;129223;-64
2023/01/18 10:15:09;;;;;;;13.07;2.58;;;;;;;18.70;32.83;99569.72;16208280;19;129113;-64
2023/01/18 10:20:31;;;;;;;7.65;2.53;;;;;;;18.92;32.44;99580.44;16205267;19;130470;-64
2023/01/18 10:26:00;;;;;;;5.68;1.98;;;;;;;19.11;32.69;99584.56;16206747;19;129334;-64
2023/01/18 10:31:40;;;;;;;8.32;2.08;;;;;;;19.27;32.33;99588.13;16204797;19;129496;-63
2023/01/18 10:37:13;;;;;;;5.55;2.10;;;;;;;19.40;32.41;99581.16;16204468;19;133225;-65
2023/01/18 10:42:50;;;;;;;4.32;1.50;;;;;;;19.44;31.97;99594.16;16205925;19;129474;-65
2023/01/18 10:48:31;;;;;;;5.55;2.08;;;;;;;19.43;32.36;99597.22;16204722;19;129539;-64
2023/01/18 10:53:52;;;;;;;8.98;1.80;;;;;;;19.36;32.43;99592.00;16200390;19;129971;-65
2023/01/18 10:59:25;;;;;;;4.55;1.85;;;;;;;19.28;32.54;99601.72;16202435;19;130122;-64
2023/01/18 11:04:55;;;;;;;3.03;1.50;;;;;;;19.15;32.59;99597.56;16204556;19;128829;-64
2023/01/18 11:10:26;;;;;;;6.88;1.77;;;;;;;19.04;32.53;99595.94;16206491;19;129909;-64
2023/01/18 11:16:01;;;;;;;4.68;1.83;;;;;;;18.93;33.18;99595.16;16204305;19;128566;-64
2023/01/18 11:21:25;;;;;;;3.60;1.47;;;;;;;18.79;33.21;99596.84;16125259;19;130837;-64
2023/01/18 11:27:02;;;;;;;5.75;1.50;;;;;;;18.68;33.52;99599.63;16116450;19;131118;-64
2023/01/18 11:32:29;;;;;;;4.40;1.25;;;;;;;18.58;33.34;99594.09;16117368;19;131213;-64
2023/01/18 11:37:57;;;;;;;2.33;1.30;;;;;;;18.50;33.40;99584.41;16116309;19;130323;-64
2023/01/18 11:43:24;;;;;;;11.02;1.63;;;;;;;18.41;33.87;99589.69;16115952;19;130566;-64
2023/01/18 11:49:03;;;;;;;4.60;1.85;;;;;;;18.34;33.61;99578.00;16125280;19;130790;-64
2023/01/18 11:54:27;;;;;;;4.90;1.35;;;;;;;18.24;33.83;99589.94;16128525;19;130079;-65
2023/01/18 11:59:49;;;;;;;9.15;1.63;;;;;;;18.15;33.99;99589.63;16127108;19;129914;-62
2023/01/18 12:05:14;;;;;;;9.57;2.20;;;;;;;18.11;33.85;99593.25;16132526;19;130067;-64
2023/01/18 12:11:05;;;;;;;14.23;1.85;;;;;;;18.06;33.47;99596.84;16131739;19;130167;-64
2023/01/18 12:16:42;;;;;;;12.88;1.95;;;;;;;18.02;33.48;99604.00;16136471;19;134063;-64
2023/01/18 12:22:23;;;;;;;6.40;1.55;;;;;;;18.12;32.88;99606.78;16135401;19;129586;-64
2023/01/18 12:28:18;;;;;;;9.88;1.88;;;;;;;18.33;32.89;99617.91;16137001;19;130512;-64
2023/01/18 12:33:45;;;;;;;6.32;1.80;;;;;;;18.61;32.78;99615.69;16124265;19;129601;-64
2023/01/18 12:39:36;;;;;;;5.45;1.52;;;;;;;18.85;32.10;99615.09;16127747;19;129826;-64
2023/01/18 12:45:16;;;;;;;5.93;1.42;;;;;;;19.06;31.75;99613.97;16126537;19;129363;-64
2023/01/18 12:50:39;;;;;;;4.95;1.50;;;;;;;19.19;32.19;99614.47;16122893;19;131097;-65
2023/01/18 12:56:19;;;;;;;2.22;1.15;;;;;;;19.30;31.95;99616.13;16114764;19;130708;-65
2023/01/18 13:01:50;;;;;;;2.72;1.20;;;;;;;19.34;31.48;99625.53;16114234;19;130231;-65
2023/01/18 13:07:18;;;;;;;4.30;1.83;;;;;;;19.33;31.96;99637.72;16119212;19;130259;-65
2023/01/18 13:12:41;;;;;;;3.28;1.30;;;;;;;19.29;31.90;99624.72;16129882;19;129435;-65
2023/01/18 13:18:12;;;;;;;8.10;1.20;;;;;;;19.22;31.54;99630.56;16132362;19;129522;-65
2023/01/18 13:24:15;;;;;;;4.00;1.35;;;;;;;19.12;31.96;99648.03;16129335;19;129473;-65
2023/01/18 13:29:37;;;;;;;2.10;0.95;;;;;;;18.99;31.95;99649.44;16136367;19;129336;-64
2023/01/18 13:35:15;;;;;;;3.55;1.10;;;;;;;18.89;32.29;99643.94;16134376;19;129816;-65
2023/01/18 13:40:53;;;;;;;7.40;1.20;;;;;;;18.77;32.56;99639.50;16137491;19;132532;-64
2023/01/18 13:46:22;;;;;;;5.45;1.42;;;;;;;18.65;32.77;99647.28;16129419;19;129381;-64
2023/01/18 13:51:48;;;;;;;5.10;0.90;;;;;;;18.55;32.99;99655.59;16128596;19;129716;-64
2023/01/18 13:57:15;;;;;;;1.83;1.08;;;;;;;18.46;33.00;99661.66;16127024;19;129386;-64
2023/01/18 14:02:44;;;;;;;2.42;0.80;;;;;;;18.38;32.93;99673.25;16129014;19;129436;-65
2023/01/18 14:08:06;;;;;;;1.38;0.70;;;;;;;18.30;32.90;99682.13;16127994;19;129694;-64
2023/01/18 14:13:53;;;;;;;2.00;0.90;;;;;;;18.23;33.46;99681.53;16124088;19;130480;-65
2023/01/18 14:19:18;;;;;;;2.05;0.77;;;;;;;18.15;33.36;99680.16;16125097;19;129933;-65
2023/01/18 14:25:18;;;;;;;1.77;0.80;;;;;;;18.09;33.22;99671.00;16126354;19;130996;-64
2023/01/18 14:30:44;;;;;;;1.42;0.70;;;;;;;18.05;33.55;99688.41;16116179;19;129554;-65
2023/01/18 14:36:07;;;;;;;2.15;1.13;;;;;;;18.00;33.10;99695.63;16114029;19;131413;-64
2023/01/18 14:41:30;;;;;;;13.98;5.90;;;;;;;18.13;33.01;99694.25;16112359;19;129413;-63
2023/01/18 14:46:55;;;;;;;23.73;10.48;;;;;;;18.25;33.06;99682.09;16114803;19;129689;-63
2023/01/18 14:52:17;;;;;;;23.63;10.53;;;;;;;18.43;33.12;99692.69;16111747;19;129765;-64
2023/01/18 14:57:39;;;;;;;20.88;7.60;;;;;;;18.58;33.42;99704.91;16110102;19;129608;-64
2023/01/18 15:03:01;;;;;;;23.70;7.20;;;;;;;18.72;32.93;99711.53;16113313;19;129388;-63
2023/01/18 15:08:26;;;;;;;22.85;5.97;;;;;;;18.88;33.08;99719.84;16118568;19;130263;-63
2023/01/18 15:13:51;;;;;;;20.43;4.97;;;;;;;19.05;33.04;99727.88;16120147;19;130359;-62
2023/01/18 15:19:18;;;;;;;17.27;4.60;;;;;;;19.18;32.50;99718.16;16118436;19;129490;-64
2023/01/18 15:24:43;;;;;;;18.33;4.18;;;;;;;19.25;32.74;99721.50;16131656;19;130820;-66
2023/01/18 15:30:11;;;;;;;13.88;3.55;;;;;;;19.40;32.14;99726.19;16138272;19;129515;-63
2023/01/18 15:35:33;;;;;;;15.10;3.42;;;;;;;19.57;31.28;99736.97;16133745;19;129409;-63
2023/01/18 15:41:03;;;;;;;12.95;3.33;;;;;;;19.70;30.91;99743.88;16132723;19;129656;-66
2023/01/18 15:46:27;;;;;;;18.73;2.85;;;;;;;19.75;30.71;99751.34;16135609;19;130883;-64
2023/01/18 15:51:55;;;;;;;15.15;2.40;;;;;;;19.74;30.80;99758.00;16134243;19;129874;-63
2023/01/18 15:57:19;;;;;;;10.77;2.40;;;;;;;19.66;31.07;99751.94;16133039;19;129655;-60
2023/01/18 16:02:41;;;;;;;9.40;2.40;;;;;;;19.61;31.08;99751.94;16133127;19;129332;-62
2023/01/18 16:08:19;;;;;;;8.18;2.25;;;;;;;19.55;30.74;99755.84;16134338;19;130697;-61
2023/01/18 16:13:42;;;;;;;14.60;3.73;;;;;;;19.42;31.42;99765.56;16133267;19;130447;-62
2023/01/18 16:19:27;;;;;;;36.25;4.78;;;;;;;19.31;31.07;99766.69;16133052;19;130182;-61
2023/01/18 16:24:49;;;;;;;16.83;4.20;;;;;;;19.16;30.82;99771.09;16128919;19;129596;-62
2023/01/18 16:30:18;;;;;;;16.63;3.10;;;;;;;19.03;30.90;99774.44;16129010;19;129645;-61
2023/01/18 16:35:40;;;;;;;12.32;2.97;;;;;;;18.90;31.21;99786.91;16127732;19;129537;-61
2023/01/18 16:41:02;;;;;;;12.23;3.13;;;;;;;18.82;31.40;99785.53;16129543;19;130694;-61
2023/01/18 16:46:25;;;;;;;14.60;2.83;;;;;;;18.74;31.49;99792.44;16129870;19;129354;-60
2023/01/18 16:51:46;;;;;;;14.18;2.47;;;;;;;18.66;31.82;99806.84;16130433;19;129720;-61
2023/01/18 16:57:20;;;;;;;7.13;2.60;;;;;;;18.62;32.15;99819.56;16128801;19;129379;-61
2023/01/18 17:02:43;;;;;;;13.48;3.03;;;;;;;18.53;32.18;99821.22;16128874;19;130816;-60
2023/01/18 17:08:04;;;;;;;7.00;2.60;;;;;;;18.47;32.26;99823.13;16126955;19;130729;-61
2023/01/18 17:13:26;;;;;;;6.70;2.10;;;;;;;18.43;32.47;99836.69;16125777;19;130376;-61
2023/01/18 17:18:48;;;;;;;9.32;2.30;;;;;;;18.37;32.33;99831.38;16126206;19;129323;-61
2023/01/18 17:24:10;;;;;;;6.25;2.13;;;;;;;18.33;32.48;99838.53;16126227;19;129244;-60
2023/01/18 17:29:32;;;;;;;5.53;1.67;;;;;;;18.26;32.60;99841.56;16125139;19;129263;-61
2023/01/18 17:34:53;;;;;;;5.50;1.80;;;;;;;18.33;32.60;99836.63;16123819;19;129348;-61
2023/01/18 17:40:16;;;;;;;6.65;1.98;;;;;;;18.57;32.45;99848.09;16123116;19;129617;-61
2023/01/18 17:45:51;;;;;;;5.32;1.40;;;;;;;19.07;31.85;99845.72;16125111;19;130954;-61
2023/01/18 17:51:22;;;;;;;5.75;1.58;;;;;;;19.68;31.66;99848.75;16123110;19;132097;-61
2023/01/18 17:56:44;;;;;;;4.68;1.60;;;;;;;20.12;31.07;99841.75;16125362;19;130234;-61
2023/01/18 18:02:08;;;;;;;5.63;1.63;;;;;;;20.27;31.29;99861.13;16121836;19;129249;-62
2023/01/18 18:07:30;;;;;;;5.43;1.55;;;;;;;20.27;31.35;99866.69;16121552;19;130154;-61
2023/01/18 18:12:52;;;;;;;4.80;1.60;;;;;;;20.18;31.03;99882.28;16126577;19;129085;-61
2023/01/18 18:18:14;;;;;;;5.43;1.50;;;;;;;20.05;31.36;99885.66;16122730;19;129520;-61
2023/01/18 18:23:44;;;;;;;9.93;1.50;;;;;;;19.86;31.36;99888.97;16124170;19;129649;-61
2023/01/18 18:29:06;;;;;;;3.70;1.65;;;;;;;19.71;32.08;99895.38;16124185;19;129835;-61
2023/01/18 18:34:28;;;;;;;5.50;1.55;;;;;;;19.53;31.99;99907.88;16115690;19;130492;-61
2023/01/18 18:39:50;;;;;;;7.82;1.67;;;;;;;19.46;32.37;99921.16;16122405;19;129762;-61
2023/01/18 18:45:12;;;;;;;7.68;1.90;;;;;;;19.43;31.93;99930.06;16119803;19;129631;-61
2023/01/18 18:50:34;;;;;;;8.48;1.67;;;;;;;19.52;32.35;99933.94;16117712;19;129393;-61
2023/01/18 18:55:59;;;;;;;12.45;1.90;;;;;;;19.84;32.09;99947.53;16122702;19;129481;-60
2023/01/18 19:01:22;;;;;;;9.57;1.30;;;;;;;20.16;31.54;99955.84;16135749;19;129298;-61
2023/01/18 19:06:45;;;;;;;18.15;1.85;;;;;;;20.43;31.84;99958.31;16136411;19;130442;-62
2023/01/18 19:12:07;;;;;;;16.13;1.83;;;;;;;20.72;31.54;99965.97;16136774;19;131256;-60
2023/01/18 19:17:29;;;;;;;19.30;1.98;;;;;;;21.00;31.55;99972.81;16132517;19;130377;-61
2023/01/18 19:22:52;;;;;;;14.02;1.80;;;;;;;21.18;31.59;99962.97;16139792;19;130284;-61
2023/01/18 19:28:14;;;;;;;8.85;1.33;;;;;;;21.32;31.40;99977.09;16146922;19;129312;-62
2023/01/18 19:33:36;;;;;;;11.07;2.13;;;;;;;21.43;31.64;99983.41;16148864;19;129352;-61
2023/01/18 19:39:00;;;;;;;6.88;1.20;;;;;;;21.51;31.31;99982.84;16134423;19;129480;-60
2023/01/18 19:44:23;;;;;;;7.05;1.60;;;;;;;21.49;31.52;99989.81;16132896;19;129482;-61
2023/01/18 19:49:45;;;;;;;10.95;1.50;;;;;;;21.47;31.68;99969.78;16133134;19;129254;-61
2023/01/18 19:55:07;;;;;;;7.85;1.25;;;;;;;21.39;31.73;99974.00;16133291;19;129249;-60
2023/01/18 20:00:29;;;;;;;7.10;1.50;;;;;;;21.25;31.82;99978.53;16131941;19;129820;-61
2023/01/18 20:05:51;;;;;;;9.13;1.40;;;;;;;21.08;32.00;99981.69;16136542;19;129517;-62
2023/01/18 20:11:14;;;;;;;16.30;1.70;;;;;;;20.97;32.84;100003.16;16127537;19;129439;-61
2023/01/18 20:16:36;;;;;;;7.22;1.42;;;;;;;20.97;33.22;100005.94;16129693;19;129398;-60
2023/01/18 20:21:57;;;;;;;6.05;1.30;;;;;;;21.02;33.88;100017.03;16131366;19;129267;-60
2023/01/18 20:27:19;;;;;;;6.32;1.40;;;;;;;21.11;33.79;100012.53;16129640;19;130674;-58
2023/01/18 20:32:41;;;;;;;8.68;1.40;;;;;;;21.21;34.41;100023.63;16130956;19;129828;-60
2023/01/18 20:38:03;;;;;;;5.13;1.55;;;;;;;21.28;34.29;100025.25;16132615;19;130150;-60
2023/01/18 20:43:24;;;;;;;13.43;1.92;;;;;;;21.35;34.40;100025.78;16135162;19;129308;-60
2023/01/18 20:48:46;;;;;;;11.70;1.58;;;;;;;21.38;34.38;100028.00;16138141;19;130518;-61
2023/01/18 20:54:08;;;;;;;7.13;1.10;;;;;;;21.35;35.03;100037.72;16136456;19;130171;-61
2023/01/18 20:59:30;;;;;;;5.10;1.15;;;;;;;21.32;35.24;100045.81;16134146;19;129041;-60
2023/01/18 21:04:52;;;;;;;5.63;1.20;;;;;;;21.24;35.46;100055.56;16131026;19;129352;-60
2023/01/18 21:10:14;;;;;;;8.98;1.55;;;;;;;21.12;35.74;100049.50;16129498;19;129765;-61
2023/01/18 21:15:37;;;;;;;3.78;1.13;;;;;;;20.97;36.02;100055.97;16130229;19;129517;-60
2023/01/18 21:21:00;;;;;;;11.93;1.65;;;;;;;20.83;36.43;100051.00;16130461;19;129243;-61
2023/01/18 21:26:21;;;;;;;7.03;1.02;;;;;;;20.68;36.42;100059.34;16125424;19;131558;-61
2023/01/18 21:31:44;;;;;;;8.63;1.30;;;;;;;20.53;36.50;100074.13;16127731;19;129700;-61
2023/01/18 21:37:06;;;;;;;9.65;1.10;;;;;;;20.40;36.85;100070.81;16126119;19;131002;-62
2023/01/18 21:48:08;;;;;;;8.23;1.30;;;;;;;20.08;36.55;100080.28;16116154;19;129574;-60
2023/01/18 21:59:12;;;;;;;9.20;1.80;;;;;;;19.79;36.62;100088.25;16125630;19;130294;-61
2023/01/18 22:10:14;;;;;;;5.43;1.13;;;;;;;19.57;36.46;100100.38;16124781;19;129352;-60
2023/01/18 22:15:36;;;;;;;9.40;1.00;;;;;;;19.48;36.85;100110.34;16123471;19;130552;-60
2023/01/18 22:20:58;;;;;;;8.93;0.90;;;;;;;19.40;36.91;100108.94;16123942;19;128987;-61
2023/01/18 22:26:22;;;;;;;7.00;1.05;;;;;;;19.32;36.82;100113.06;16123675;19;130125;-61
2023/01/18 22:31:43;;;;;;;8.50;1.17;;;;;;;19.24;37.17;100110.81;16125110;19;129296;-60
2023/01/18 22:37:05;;;;;;;4.30;0.88;;;;;;;19.15;37.13;100116.00;16124114;19;129807;-61
2023/01/18 22:42:27;;;;;;;6.30;0.82;;;;;;;19.07;37.19;100117.38;16128266;19;134097;-60
2023/01/18 22:47:49;;;;;;;1.95;0.82;;;;;;;19.02;37.27;100122.88;16124628;19;130168;-60
2023/01/18 22:53:11;;;;;;;3.17;0.80;;;;;;;18.98;37.37;100124.50;16123987;19;130163;-60
2023/01/18 22:58:34;;;;;;;7.65;1.05;;;;;;;18.94;37.53;100134.50;16123362;19;130996;-62
2023/01/18 23:03:58;;;;;;;1.83;0.70;;;;;;;18.87;37.61;100139.41;16120343;19;129830;-60
2023/01/18 23:09:20;;;;;;;1.75;0.70;;;;;;;18.81;37.59;100138.53;16119737;19;129498;-61
2023/01/18 23:20:25;;;;;;;1.73;0.80;;;;;;;18.71;37.46;100141.25;16119780;19;129766;-64
2023/01/18 23:25:53;;;;;;;4.43;0.80;;;;;;;18.66;37.69;100143.97;16122810;19;129459;-64
2023/01/18 23:31:16;;;;;;;1.50;0.80;;;;;;;18.59;37.20;100149.72;16117741;19;131478;-61
2023/01/18 23:36:38;;;;;;;1.17;0.73;;;;;;;18.54;37.19;100145.00;16121200;19;129638;-63
2023/01/18 23:59:01;;;;;;;0.82;0.60;;;;;;;18.37;37.21;100153.41;16134910;19;130826;-61
